Time;durP1;ratioP1;P1;durP2;ratioP2;P2;SDS_P1;SDS_P2;PMS_P1;PMS_P2;Temp;Humidity;BMP_temperature;BMP_pressure;BME280_temperature;BME280_humidity;BME280_pressure;Samples;Min_cycle;Max_cycle;Signal;HPM_P1;HPM_P2
2024/04/02 00:01:13;;;;;;;10.10;3.80;;;;;;;8.57;100.00;99635.16;5010915;28;20213;-73
2024/04/02 00:03:43;;;;;;;10.37;2.90;;;;;;;8.73;100.00;99674.75;5010261;28;20193;-73
2024/04/02 00:06:08;;;;;;;9.20;3.47;;;;;;;8.06;100.00;99593.28;5010711;28;20497;-73
2024/04/02 00:08:35;;;;;;;8.30;3.30;;;;;;;8.46;100.00;99666.06;5010390;28;20869;-73
2024/04/02 00:11:01;;;;;;;9.80;2.90;;;;;;;8.68;100.00;99685.28;5010233;28;20611;-73
2024/04/02 00:13:27;;;;;;;9.63;3.40;;;;;;;8.39;100.00;99625.22;5010524;28;20423;-73
2024/04/02 00:15:53;;;;;;;9.83;3.30;;;;;;;8.03;100.00;99575.81;4991438;28;20436;-73
2024/04/02 00:18:18;;;;;;;10.77;3.70;;;;;;;7.97;100.00;99575.88;5007834;28;20518;-73
2024/04/02 00:20:44;;;;;;;7.60;3.47;;;;;;;8.77;100.00;99707.22;4990887;28;20609;-73
2024/04/02 00:23:09;;;;;;;7.93;3.93;;;;;;;8.21;100.00;99620.50;5009130;28;20302;-73
2024/04/02 00:25:36;;;;;;;11.87;4.70;;;;;;;8.71;100.00;99682.19;5009144;28;20193;-73
2024/04/02 00:28:02;;;;;;;11.13;4.70;;;;;;;8.78;100.00;99698.97;5010191;28;20284;-73
2024/04/02 00:30:28;;;;;;;10.73;5.17;;;;;;;8.71;100.00;99676.81;5010395;28;20440;-73
2024/04/02 00:32:55;;;;;;;9.97;5.37;;;;;;;8.79;100.00;99700.66;5010369;28;20448;-73
2024/04/02 00:35:21;;;;;;;15.20;5.00;;;;;;;8.82;100.00;99702.03;5010182;28;20511;-73
2024/04/02 00:37:47;;;;;;;10.20;4.70;;;;;;;8.76;100.00;99714.41;5009620;28;20475;-73
2024/04/02 00:40:13;;;;;;;12.83;5.33;;;;;;;7.96;100.00;99599.09;5010562;28;20173;-73
2024/04/02 00:42:39;;;;;;;11.20;5.23;;;;;;;8.22;100.00;99629.38;5009445;28;20792;-73
2024/04/02 00:45:04;;;;;;;12.60;4.33;;;;;;;8.88;100.00;99708.38;4993223;28;20732;-73
2024/04/02 00:47:30;;;;;;;15.87;5.33;;;;;;;8.82;100.00;99710.06;5010656;28;20706;-73
2024/04/02 00:49:56;;;;;;;10.50;5.03;;;;;;;8.77;100.00;99710.72;5009189;28;20173;-73
2024/04/02 00:52:22;;;;;;;10.50;5.00;;;;;;;8.69;100.00;99712.81;5009596;28;20572;-73
2024/04/02 00:54:47;;;;;;;9.60;4.90;;;;;;;8.69;100.00;99707.47;5010347;28;20438;-73
2024/04/02 00:57:13;;;;;;;10.47;5.10;;;;;;;8.65;100.00;99706.25;5009425;28;20280;-73
2024/04/02 00:59:39;;;;;;;10.00;4.93;;;;;;;8.00;100.00;99612.81;5009647;28;20197;-73
2024/04/02 01:02:07;;;;;;;14.20;5.33;;;;;;;8.27;100.00;99653.56;5008133;28;20371;-73
2024/04/02 01:04:34;;;;;;;11.50;5.30;;;;;;;8.38;100.00;99674.28;5009430;28;20477;-73
2024/04/02 01:07:02;;;;;;;10.23;4.17;;;;;;;8.65;100.00;99696.41;5008948;28;20431;-73
2024/04/02 01:09:29;;;;;;;13.13;5.50;;;;;;;8.70;100.00;99696.56;5007967;28;20482;-73
2024/04/02 01:11:57;;;;;;;10.77;4.77;;;;;;;8.64;100.00;99707.28;5009176;28;20468;-73
2024/04/02 01:14:22;;;;;;;12.27;5.00;;;;;;;8.47;100.00;99665.00;4992017;28;20442;-73
2024/04/02 01:16:48;;;;;;;13.10;4.90;;;;;;;7.98;100.00;99575.63;5009386;28;20841;-73
2024/04/02 01:19:13;;;;;;;10.77;4.90;;;;;;;8.71;100.00;99700.06;4991458;28;20184;-73
2024/04/02 01:21:39;;;;;;;13.43;4.77;;;;;;;8.72;100.00;99705.19;5008503;28;20213;-73
2024/04/02 01:24:05;;;;;;;9.07;4.80;;;;;;;8.28;100.00;99645.38;5010131;28;20181;-73
2024/04/02 01:26:31;;;;;;;10.20;4.10;;;;;;;8.24;100.00;99633.44;5009721;28;20556;-73
2024/04/02 01:29:01;;;;;;;14.53;4.07;;;;;;;8.64;100.00;99678.69;5009607;28;20435;-73
2024/04/02 01:31:30;;;;;;;12.00;3.73;;;;;;;8.81;100.00;99719.13;4991644;28;20794;-73
2024/04/02 01:33:56;;;;;;;15.20;4.77;;;;;;;8.64;100.00;99731.34;5009760;28;20459;-73
2024/04/02 01:36:21;;;;;;;10.97;3.63;;;;;;;8.75;100.00;99723.47;5009219;28;20455;-73
2024/04/02 01:38:46;;;;;;;10.30;4.10;;;;;;;8.69;100.00;99724.34;5013577;28;21067;-73
2024/04/02 01:41:12;;;;;;;10.23;3.80;;;;;;;8.73;100.00;99733.56;5020636;28;20238;-73
2024/04/02 01:43:38;;;;;;;11.93;4.20;;;;;;;8.72;100.00;99734.59;5008329;28;20177;-73
2024/04/02 01:46:03;;;;;;;10.60;4.63;;;;;;;7.77;100.00;99594.63;5008513;28;20189;-73
2024/04/02 01:48:29;;;;;;;10.57;3.90;;;;;;;8.04;100.00;99638.06;5008643;28;20180;-73
2024/04/02 01:50:54;;;;;;;10.47;4.50;;;;;;;8.00;100.00;99626.16;5008566;28;20193;-73
2024/04/02 01:53:22;;;;;;;10.60;4.10;;;;;;;8.02;100.00;99642.81;5009265;28;20211;-73
2024/04/02 01:55:47;;;;;;;13.33;4.67;;;;;;;8.69;100.00;99740.38;5008892;28;20208;-73
2024/04/02 01:58:13;;;;;;;9.13;3.40;;;;;;;8.43;100.00;99689.72;5009116;28;20510;-73
2024/04/02 02:00:38;;;;;;;8.57;3.50;;;;;;;8.62;100.00;99718.22;5008353;28;20212;-73
2024/04/02 02:03:04;;;;;;;11.13;4.37;;;;;;;8.69;100.00;99732.34;5008051;28;20212;-73
2024/04/02 02:05:30;;;;;;;12.90;3.93;;;;;;;8.11;100.00;99636.19;5007680;28;20219;-73
2024/04/02 02:07:56;;;;;;;9.20;3.87;;;;;;;8.21;100.00;99663.25;4990433;28;20654;-73
2024/04/02 02:10:21;;;;;;;9.00;3.77;;;;;;;8.20;100.00;99664.31;5012776;28;20444;-73
2024/04/02 02:12:47;;;;;;;12.57;3.90;;;;;;;8.32;100.00;99691.16;4995245;28;20701;-73
2024/04/02 02:15:12;;;;;;;10.67;4.23;;;;;;;8.28;100.00;99676.59;5012850;28;20188;-73
2024/04/02 02:17:38;;;;;;;12.50;4.00;;;;;;;8.36;100.00;99681.69;5012251;28;20215;-73
2024/04/02 02:20:05;;;;;;;12.60;4.00;;;;;;;8.34;100.00;99705.16;4994445;28;20284;-73
2024/04/02 02:22:31;;;;;;;9.83;3.43;;;;;;;8.64;100.00;99729.50;5011682;28;20212;-73
2024/04/02 02:24:56;;;;;;;7.77;3.20;;;;;;;8.54;100.00;99716.59;5012678;28;20440;-73
2024/04/02 02:27:22;;;;;;;11.50;3.50;;;;;;;8.41;100.00;99689.09;5012704;28;20670;-73
2024/04/02 02:29:47;;;;;;;11.93;4.30;;;;;;;8.70;100.00;99747.34;4994751;28;20192;-73
2024/04/02 02:32:15;;;;;;;15.17;3.57;;;;;;;8.72;100.00;99739.94;5010870;28;20204;-73
2024/04/02 02:34:40;;;;;;;12.33;3.07;;;;;;;8.35;100.00;99706.78;5012810;28;20710;-73
2024/04/02 02:37:06;;;;;;;9.90;3.20;;;;;;;8.59;100.00;99751.53;5012498;28;20482;-73
2024/04/02 02:39:32;;;;;;;10.17;3.60;;;;;;;7.88;100.00;99608.13;5012645;28;20259;-73
2024/04/02 02:41:57;;;;;;;10.93;3.50;;;;;;;8.27;100.00;99674.94;5012043;28;20200;-73
2024/04/02 02:44:22;;;;;;;16.00;4.40;;;;;;;8.69;100.00;99751.06;5010907;28;20185;-73
2024/04/02 02:46:48;;;;;;;9.20;3.73;;;;;;;8.69;100.00;99743.03;5011548;28;20181;-73
2024/04/02 02:49:13;;;;;;;11.67;3.90;;;;;;;8.60;100.00;99745.16;5011990;28;20185;-73
2024/04/02 02:51:38;;;;;;;9.70;3.77;;;;;;;8.40;100.00;99720.34;5011257;28;20201;-73
2024/04/02 02:54:04;;;;;;;11.07;4.10;;;;;;;8.09;100.00;99670.28;5011857;28;20546;-73
2024/04/02 02:56:29;;;;;;;11.53;4.13;;;;;;;7.78;100.00;99607.78;5012839;28;20593;-73
2024/04/02 02:58:55;;;;;;;9.70;3.83;;;;;;;8.76;100.00;99764.41;5012512;28;20300;-73
2024/04/02 03:01:20;;;;;;;12.97;4.10;;;;;;;8.40;100.00;99712.34;5012331;28;20240;-73
2024/04/02 03:03:51;;;;;;;10.97;4.33;;;;;;;8.11;100.00;99678.94;5010632;28;20554;-73
2024/04/02 03:06:19;;;;;;;10.87;4.60;;;;;;;8.05;100.00;99643.19;5012195;28;20644;-73
2024/04/02 03:08:44;;;;;;;10.10;4.27;;;;;;;8.67;100.00;99766.50;5012584;28;20436;-73
2024/04/02 03:11:09;;;;;;;10.37;4.73;;;;;;;7.92;100.00;99643.22;5011803;28;20449;-73
2024/04/02 03:13:35;;;;;;;12.33;4.97;;;;;;;8.71;100.00;99764.25;5012477;28;20193;-73
2024/04/02 03:16:02;;;;;;;11.53;4.77;;;;;;;8.67;100.00;99774.50;5011132;28;20663;-73
2024/04/02 03:18:27;;;;;;;10.20;4.43;;;;;;;7.98;100.00;99678.97;5012811;28;20232;-73
2024/04/02 03:20:53;;;;;;;12.57;5.30;;;;;;;8.70;100.00;99774.09;5012005;28;20917;-73
2024/04/02 03:23:21;;;;;;;13.50;5.40;;;;;;;8.87;100.00;99769.06;5010657;28;20247;-73
2024/04/02 03:25:53;;;;;;;12.07;5.27;;;;;;;8.67;100.00;99782.53;5010825;28;20196;-73
2024/04/02 03:28:19;;;;;;;10.10;4.87;;;;;;;8.45;100.00;99752.63;4998173;28;20945;-73
2024/04/02 03:30:45;;;;;;;15.13;5.33;;;;;;;8.67;100.00;99766.50;5010463;28;20439;-73
2024/04/02 03:33:11;;;;;;;11.07;5.50;;;;;;;8.01;100.00;99694.56;5010327;28;20510;-73
2024/04/02 03:35:37;;;;;;;12.63;5.80;;;;;;;8.51;100.00;99769.66;5010528;28;20463;-73
2024/04/02 03:38:03;;;;;;;11.63;5.70;;;;;;;7.86;100.00;99650.22;5011595;28;20262;-73
2024/04/02 03:40:29;;;;;;;11.63;6.33;;;;;;;8.70;100.00;99784.78;5009721;28;20427;-73
2024/04/02 03:42:55;;;;;;;11.67;5.90;;;;;;;8.73;100.00;99784.34;5010732;28;20460;-73
2024/04/02 03:45:21;;;;;;;11.10;5.97;;;;;;;8.38;100.00;99736.59;5010493;28;21433;-73
2024/04/02 03:47:46;;;;;;;15.33;7.50;;;;;;;7.81;100.00;99658.06;5010442;28;20185;-73
2024/04/02 03:50:12;;;;;;;18.03;6.50;;;;;;;8.23;100.00;99711.13;5010506;28;20196;-73
2024/04/02 03:52:37;;;;;;;16.73;7.27;;;;;;;8.16;100.00;99689.81;5001237;28;20689;-73
2024/04/02 03:55:03;;;;;;;13.20;7.50;;;;;;;8.21;100.00;99714.00;5011643;28;20181;-73
2024/04/02 03:57:28;;;;;;;18.37;6.90;;;;;;;8.48;100.00;99756.72;5010745;28;20211;-73
2024/04/02 03:59:54;;;;;;;14.00;7.30;;;;;;;8.43;100.00;99751.19;5010769;28;20177;-73
2024/04/02 04:02:19;;;;;;;13.37;7.17;;;;;;;8.40;100.00;99754.28;5012459;28;20212;-73
2024/04/02 04:04:44;;;;;;;13.23;6.87;;;;;;;8.53;100.00;99791.63;5024064;28;20188;-74
2024/04/02 04:07:10;;;;;;;13.00;7.83;;;;;;;8.48;100.00;99784.25;5012242;28;20804;-73
2024/04/02 04:09:35;;;;;;;14.80;7.70;;;;;;;7.92;100.00;99708.13;5011036;28;20195;-73
2024/04/02 04:12:02;;;;;;;14.27;7.53;;;;;;;8.48;100.00;99791.47;5010525;28;20311;-73
2024/04/02 04:14:27;;;;;;;18.30;8.67;;;;;;;8.63;100.00;99800.03;5010407;28;20224;-73
2024/04/02 04:16:53;;;;;;;15.60;9.00;;;;;;;8.25;100.00;99749.97;5010519;28;21416;-73
2024/04/02 04:19:18;;;;;;;14.93;9.93;;;;;;;8.30;100.00;99776.91;5010713;28;20185;-73
2024/04/02 04:21:44;;;;;;;14.60;9.67;;;;;;;8.07;100.00;99741.78;5009094;28;20259;-73
2024/04/02 04:24:09;;;;;;;15.50;9.90;;;;;;;8.09;100.00;99761.09;5011765;28;20196;-73
2024/04/02 04:26:34;;;;;;;17.50;10.30;;;;;;;7.52;100.00;99690.53;5008981;28;20180;-73
2024/04/02 04:29:02;;;;;;;18.03;10.77;;;;;;;7.60;100.00;99693.81;5009930;28;20559;-73
2024/04/02 04:31:28;;;;;;;17.70;11.23;;;;;;;7.38;100.00;99695.09;5008622;28;21044;-73
2024/04/02 04:33:54;;;;;;;19.90;10.10;;;;;;;7.51;100.00;99699.59;5010730;28;20478;-73
2024/04/02 04:36:19;;;;;;;16.33;10.30;;;;;;;8.05;100.00;99792.75;5010259;28;20643;-73
2024/04/02 04:38:44;;;;;;;16.50;10.93;;;;;;;7.32;100.00;99675.38;5009351;28;20596;-73
2024/04/02 04:41:10;;;;;;;14.90;9.73;;;;;;;7.52;100.00;99734.09;5009873;28;20198;-73
2024/04/02 04:43:35;;;;;;;15.10;10.43;;;;;;;7.95;100.00;99791.53;5009930;28;20196;-73
2024/04/02 04:46:01;;;;;;;16.90;10.43;;;;;;;7.78;100.00;99781.28;5009867;28;20231;-73
2024/04/02 04:48:26;;;;;;;15.27;9.60;;;;;;;7.76;100.00;99745.16;4992056;28;20220;-73
2024/04/02 04:51:00;;;;;;;14.43;9.50;;;;;;;7.44;100.00;99711.09;5010837;28;20208;-73
2024/04/02 04:53:26;;;;;;;18.57;9.97;;;;;;;7.35;100.00;99699.00;5010387;28;20800;-73
2024/04/02 04:56:05;;;;;;;14.13;8.60;;;;;;;7.83;100.00;99794.81;5011096;28;20455;-73
2024/04/02 04:58:32;;;;;;;14.77;9.60;;;;;;;8.08;100.00;99802.19;5010509;28;20490;-73
2024/04/02 05:00:57;;;;;;;17.17;9.80;;;;;;;7.66;100.00;99745.53;5009625;28;20446;-73
2024/04/02 05:03:23;;;;;;;15.20;9.80;;;;;;;8.15;100.00;99811.00;5009610;28;20530;-73
2024/04/02 05:05:49;;;;;;;14.67;8.90;;;;;;;8.08;100.00;99826.25;5009616;28;20193;-73
2024/04/02 05:08:17;;;;;;;13.73;9.10;;;;;;;8.08;100.00;99812.88;5010678;28;20247;-73
2024/04/02 05:10:43;;;;;;;12.10;8.17;;;;;;;8.12;100.00;99812.25;5008861;28;20492;-73
2024/04/02 05:13:09;;;;;;;15.37;8.80;;;;;;;8.12;100.00;99828.28;4991511;28;20550;-73
2024/04/02 05:15:37;;;;;;;15.50;8.70;;;;;;;8.10;100.00;99816.16;5007292;28;20507;-73
2024/04/02 05:18:03;;;;;;;16.30;8.97;;;;;;;8.11;100.00;99829.31;5008201;28;20218;-73
2024/04/02 05:20:28;;;;;;;13.50;7.30;;;;;;;8.23;100.00;99839.38;5008133;28;20440;-73
2024/04/02 05:22:54;;;;;;;16.83;8.57;;;;;;;8.25;100.00;99840.00;4988896;28;20588;-73
2024/04/02 05:25:20;;;;;;;13.17;7.93;;;;;;;8.17;100.00;99846.34;5009601;28;20272;-73
2024/04/02 05:27:46;;;;;;;12.37;7.67;;;;;;;8.04;100.00;99851.69;5009688;28;20435;-73
2024/04/02 05:30:12;;;;;;;14.47;8.13;;;;;;;7.95;100.00;99818.22;5008758;28;20440;-73
2024/04/02 05:32:38;;;;;;;12.97;7.77;;;;;;;8.06;100.00;99849.66;5008487;28;20215;-73
2024/04/02 05:35:04;;;;;;;12.50;7.30;;;;;;;8.14;100.00;99852.13;4991114;28;20510;-73
2024/04/02 05:37:29;;;;;;;15.83;8.33;;;;;;;7.80;100.00;99816.59;5008148;28;20472;-73
2024/04/02 05:39:55;;;;;;;12.67;7.53;;;;;;;8.15;100.00;99873.25;5007962;28;20805;-73
2024/04/02 05:42:21;;;;;;;11.77;7.47;;;;;;;8.12;100.00;99878.22;5008176;28;20213;-73
2024/04/02 05:44:47;;;;;;;13.20;7.53;;;;;;;8.00;100.00;99882.53;5009360;28;20267;-73
2024/04/02 05:47:12;;;;;;;15.30;8.67;;;;;;;7.78;100.00;99842.69;5009239;28;20459;-73
2024/04/02 05:49:38;;;;;;;13.57;7.77;;;;;;;8.00;100.00;99870.00;5009170;28;20705;-73
2024/04/02 05:52:04;;;;;;;15.40;8.03;;;;;;;7.54;100.00;99801.38;4989705;28;20213;-73
2024/04/02 05:54:29;;;;;;;13.77;7.63;;;;;;;7.20;100.00;99763.19;5009428;28;20602;-73
2024/04/02 05:56:54;;;;;;;13.30;7.73;;;;;;;7.92;100.00;99879.00;5008556;28;20188;-73
2024/04/02 05:59:20;;;;;;;13.47;8.27;;;;;;;7.93;100.00;99878.00;5009308;28;20181;-73
2024/04/02 06:01:45;;;;;;;14.83;8.43;;;;;;;7.73;100.00;99858.50;5008722;28;20200;-73
2024/04/02 06:04:11;;;;;;;11.00;7.17;;;;;;;8.12;100.00;99900.38;5009092;28;20208;-73
2024/04/02 06:06:36;;;;;;;13.60;7.93;;;;;;;8.11;100.00;99895.28;5008584;28;20944;-73
2024/04/02 06:09:01;;;;;;;11.30;7.30;;;;;;;8.01;100.00;99893.00;5009151;28;20639;-73
2024/04/02 06:11:27;;;;;;;14.03;6.47;;;;;;;8.02;100.00;99899.19;5008078;28;20223;-73
2024/04/02 06:13:52;;;;;;;11.60;7.30;;;;;;;7.36;100.00;99783.31;5009193;28;20227;-73
2024/04/02 06:16:18;;;;;;;10.70;6.00;;;;;;;7.78;100.00;99825.81;5009433;28;20223;-73
2024/04/02 06:18:43;;;;;;;10.87;6.27;;;;;;;7.70;100.00;99824.19;5008227;28;20327;-73
2024/04/02 06:21:09;;;;;;;10.10;6.80;;;;;;;8.43;100.00;99923.03;4990128;28;20550;-73
2024/04/02 06:23:34;;;;;;;11.17;6.03;;;;;;;8.29;100.00;99906.16;5009989;28;20246;-73
2024/04/02 06:26:00;;;;;;;12.07;6.83;;;;;;;8.54;100.00;99934.94;5007747;28;20185;-73
2024/04/02 06:28:25;;;;;;;11.77;6.50;;;;;;;8.47;100.00;99936.78;5023465;28;20286;-74
2024/04/02 06:30:50;;;;;;;10.30;5.80;;;;;;;8.35;100.00;99893.81;5009158;28;20327;-73
2024/04/02 06:33:16;;;;;;;10.50;6.40;;;;;;;8.47;100.00;99926.91;5008914;28;20201;-73
2024/04/02 06:35:41;;;;;;;14.33;6.73;;;;;;;8.46;100.00;99930.63;5007747;28;20228;-73
2024/04/02 06:38:07;;;;;;;10.50;5.90;;;;;;;8.57;100.00;99935.34;5008059;28;20300;-73
2024/04/02 06:40:32;;;;;;;12.43;6.10;;;;;;;8.07;100.00;99859.28;5007810;28;20324;-73
2024/04/02 06:42:58;;;;;;;12.13;5.40;;;;;;;8.80;100.00;99966.16;5004601;28;20216;-73
2024/04/02 06:45:26;;;;;;;11.30;6.00;;;;;;;8.17;100.00;99867.72;5007195;28;20197;-73
2024/04/02 06:47:51;;;;;;;10.23;5.63;;;;;;;8.12;100.00;99871.00;5007023;28;20179;-73
2024/04/02 06:50:17;;;;;;;9.50;5.73;;;;;;;8.62;100.00;99915.19;5007444;28;20523;-73
2024/04/02 06:52:42;;;;;;;11.17;5.50;;;;;;;8.32;100.00;99875.53;5007995;28;20240;-73
2024/04/02 06:55:07;;;;;;;9.40;5.37;;;;;;;8.93;100.00;99987.53;4988388;28;20272;-73
2024/04/02 06:57:33;;;;;;;10.60;6.27;;;;;;;9.01;100.00;100003.34;5011411;28;20573;-73
2024/04/02 06:59:58;;;;;;;11.47;5.13;;;;;;;9.02;100.00;100007.66;5010997;28;20197;-73
2024/04/02 07:02:24;;;;;;;8.13;5.20;;;;;;;8.82;100.00;99983.66;5011974;28;20221;-73
2024/04/02 07:04:50;;;;;;;9.30;5.40;;;;;;;9.10;100.00;100020.00;5012406;28;20196;-73
2024/04/02 07:07:16;;;;;;;8.50;4.83;;;;;;;8.30;100.00;99886.44;5012134;28;20181;-73
2024/04/02 07:09:41;;;;;;;11.80;5.20;;;;;;;8.77;100.00;99959.38;4993030;28;20956;-73
2024/04/02 07:12:08;;;;;;;8.97;5.07;;;;;;;9.18;100.00;100040.38;5011698;28;20300;-73
2024/04/02 07:14:33;;;;;;;8.57;4.80;;;;;;;9.15;100.00;100044.28;5011944;28;20212;-73
2024/04/02 07:16:59;;;;;;;9.70;4.70;;;;;;;9.28;100.00;100060.28;4990291;28;20483;-71
2024/04/02 07:19:24;;;;;;;11.23;4.63;;;;;;;9.37;100.00;100058.22;5011908;28;20247;-72
2024/04/02 07:21:50;;;;;;;9.47;5.07;;;;;;;8.69;100.00;99980.97;5011965;28;20208;-72
2024/04/02 07:24:15;;;;;;;9.83;4.93;;;;;;;9.37;100.00;100076.94;5012427;28;20271;-72
2024/04/02 07:26:41;;;;;;;9.20;5.00;;;;;;;8.82;100.00;99945.38;5012036;28;20192;-72
2024/04/02 07:29:06;;;;;;;10.50;5.03;;;;;;;8.89;100.00;99986.31;5011564;28;20603;-72
2024/04/02 07:31:31;;;;;;;10.53;4.40;;;;;;;9.24;100.00;100043.03;4993739;28;20751;-72
2024/04/02 07:33:57;;;;;;;11.17;5.40;;;;;;;9.43;100.00;100068.09;5010996;28;20724;-72
2024/04/02 07:36:22;;;;;;;9.73;4.70;;;;;;;9.43;100.00;100073.47;5011476;28;20244;-72
2024/04/02 07:38:48;;;;;;;10.10;4.83;;;;;;;9.40;100.00;100073.03;5010889;28;20204;-72
2024/04/02 07:41:13;;;;;;;9.97;4.77;;;;;;;9.02;100.00;100001.50;4993209;28;20185;-72
2024/04/02 07:43:38;;;;;;;9.30;4.27;;;;;;;9.16;100.00;100005.78;5011558;28;20213;-72
2024/04/02 07:46:04;;;;;;;10.13;4.97;;;;;;;9.25;100.00;100001.84;5011151;28;20299;-72
2024/04/02 07:48:29;;;;;;;10.87;4.70;;;;;;;9.55;100.00;100059.44;5010312;28;20189;-72
2024/04/02 07:50:56;;;;;;;10.00;4.73;;;;;;;9.53;100.00;100032.84;5010361;28;20192;-72
2024/04/02 07:53:23;;;;;;;9.73;4.77;;;;;;;9.65;100.00;100065.16;5011810;28;20199;-72
2024/04/02 07:55:49;;;;;;;10.80;4.47;;;;;;;9.89;100.00;100093.91;5010939;28;20482;-72
2024/04/02 07:58:14;;;;;;;11.83;5.17;;;;;;;9.53;100.00;100019.47;5011809;28;20566;-72
2024/04/02 08:00:41;;;;;;;11.07;5.80;;;;;;;10.07;100.00;100058.38;5010411;28;20185;-72
2024/04/02 08:03:07;;;;;;;11.77;5.77;;;;;;;9.60;100.00;99998.00;5009829;28;20200;-72
2024/04/02 08:05:32;;;;;;;13.50;6.33;;;;;;;10.04;100.00;100087.44;4991311;28;20436;-72
2024/04/02 08:07:58;;;;;;;12.60;7.77;;;;;;;9.85;100.00;100081.97;5009939;28;20748;-72
2024/04/02 08:10:23;;;;;;;15.60;9.00;;;;;;;10.15;100.00;100116.25;5009654;28;20226;-72
2024/04/02 08:12:48;;;;;;;15.90;8.90;;;;;;;9.76;100.00;100039.56;5009056;28;20268;-72
2024/04/02 08:15:14;;;;;;;15.80;9.50;;;;;;;9.72;100.00;100031.16;5010084;28;20184;-72
2024/04/02 08:17:39;;;;;;;16.23;11.93;;;;;;;9.91;100.00;100058.84;5009893;28;20677;-72
2024/04/02 08:20:05;;;;;;;21.13;14.23;;;;;;;10.20;100.00;100116.44;5010378;28;20259;-72
2024/04/02 08:22:31;;;;;;;21.33;13.13;;;;;;;10.21;100.00;100112.69;5010169;28;20240;-72
2024/04/02 08:24:57;;;;;;;19.97;13.10;;;;;;;9.90;100.00;100067.94;5009855;28;20466;-72
2024/04/02 08:27:22;;;;;;;18.17;12.17;;;;;;;9.70;100.00;100041.25;5009782;28;20177;-72
2024/04/02 08:29:49;;;;;;;17.10;11.20;;;;;;;10.02;100.00;100113.63;4991755;28;20181;-72
2024/04/02 08:32:15;;;;;;;16.90;9.30;;;;;;;10.16;100.00;100099.97;5009909;28;20279;-72
2024/04/02 08:34:40;;;;;;;13.53;6.33;;;;;;;10.11;100.00;100102.44;5010020;28;21728;-72
2024/04/02 08:37:05;;;;;;;11.87;6.40;;;;;;;10.38;100.00;100134.50;5008880;28;20443;-72
2024/04/02 08:39:31;;;;;;;15.20;7.07;;;;;;;9.96;100.00;100046.47;5009463;28;20173;-72
2024/04/02 08:42:02;;;;;;;13.33;6.40;;;;;;;10.64;100.00;100163.03;5010093;28;20414;-72
2024/04/02 08:44:32;;;;;;;14.73;5.80;;;;;;;10.38;100.00;100148.72;5010848;28;20236;-72
2024/04/02 08:47:00;;;;;;;10.30;5.40;;;;;;;10.51;100.00;100185.38;5008989;28;20966;-72
2024/04/02 08:49:26;;;;;;;10.93;5.13;;;;;;;10.38;100.00;100186.25;5008819;28;20439;-72
2024/04/02 08:51:53;;;;;;;10.80;4.60;;;;;;;10.50;100.00;100188.28;5020523;28;20448;-72
2024/04/02 08:54:19;;;;;;;13.40;4.90;;;;;;;10.34;100.00;100165.47;5014872;28;20416;-72
2024/04/02 08:56:46;;;;;;;9.23;5.00;;;;;;;10.46;100.00;100195.94;5009767;28;20926;-72
2024/04/02 08:59:11;;;;;;;13.80;4.70;;;;;;;10.63;100.00;100188.22;5008975;28;20558;-72
2024/04/02 09:01:37;;;;;;;11.80;5.00;;;;;;;10.70;100.00;100197.03;5009194;28;20613;-72
2024/04/02 09:04:03;;;;;;;12.67;4.87;;;;;;;10.02;100.00;100138.56;5009636;28;20184;-72
2024/04/02 09:06:29;;;;;;;13.33;5.17;;;;;;;9.79;100.00;100087.34;5009329;28;20439;-72
2024/04/02 09:08:56;;;;;;;11.23;5.40;;;;;;;10.56;100.00;100198.97;5009329;28;20177;-72
2024/04/02 09:11:23;;;;;;;13.23;5.83;;;;;;;9.89;100.00;100099.28;5008094;28;20985;-72
2024/04/02 09:13:48;;;;;;;9.37;5.10;;;;;;;10.46;100.00;100206.66;4990928;28;20436;-72
2024/04/02 09:16:14;;;;;;;11.67;4.40;;;;;;;10.38;100.00;100196.97;5009976;28;20439;-72
2024/04/02 09:18:48;;;;;;;11.63;5.37;;;;;;;10.18;100.00;100162.22;5008622;28;20262;-72
2024/04/02 09:21:13;;;;;;;11.80;5.07;;;;;;;10.07;100.00;100162.88;5008669;28;20185;-72
2024/04/02 09:23:38;;;;;;;11.90;5.00;;;;;;;10.42;100.00;100205.44;4991813;28;20454;-72
2024/04/02 09:26:08;;;;;;;11.77;5.87;;;;;;;9.87;100.00;100141.50;5008085;28;20181;-72
2024/04/02 09:28:39;;;;;;;12.43;5.60;;;;;;;9.49;100.00;100069.13;5009413;28;20261;-72
2024/04/02 09:31:05;;;;;;;10.50;5.30;;;;;;;10.42;100.00;100226.06;5008032;28;20443;-72
2024/04/02 09:33:31;;;;;;;11.80;5.10;;;;;;;10.51;100.00;100220.25;5004032;28;20436;-72
2024/04/02 09:36:13;;;;;;;12.23;4.93;;;;;;;10.51;100.00;100230.97;5006986;28;20299;-71
2024/04/02 09:38:40;;;;;;;13.40;5.50;;;;;;;10.48;100.00;100214.50;5006326;28;20557;-71
2024/04/02 09:41:07;;;;;;;13.53;5.40;;;;;;;10.15;100.00;100176.03;5002351;28;20567;-71
2024/04/02 09:43:36;;;;;;;22.97;5.70;;;;;;;10.07;100.00;100164.75;5006675;28;20440;-71
2024/04/02 09:46:03;;;;;;;13.20;4.80;;;;;;;10.36;100.00;100220.50;5008801;28;21133;-72
2024/04/02 09:48:33;;;;;;;12.60;4.60;;;;;;;10.39;100.00;100240.72;4989308;28;20463;-71
2024/04/02 09:50:59;;;;;;;13.87;5.13;;;;;;;10.44;100.00;100245.44;5007659;28;20439;-71
2024/04/02 09:53:25;;;;;;;9.13;4.23;;;;;;;10.09;100.00;100168.81;5008677;28;20990;-72
2024/04/02 09:55:55;;;;;;;10.33;4.40;;;;;;;10.69;100.00;100249.03;5007358;28;20177;-72
2024/04/02 09:58:21;;;;;;;10.37;3.90;;;;;;;10.66;100.00;100254.00;5007490;28;20467;-71
2024/04/02 10:00:53;;;;;;;9.90;4.60;;;;;;;10.84;100.00;100265.66;5006178;28;20866;-72
2024/04/02 10:03:22;;;;;;;10.40;4.33;;;;;;;10.26;100.00;100173.72;5006253;28;20237;-72
2024/04/02 10:05:51;;;;;;;15.10;3.97;;;;;;;10.34;100.00;100187.72;5005814;28;20438;-71
2024/04/02 10:08:16;;;;;;;10.00;3.53;;;;;;;10.99;100.00;100288.72;5007591;28;20436;-72
2024/04/02 10:10:42;;;;;;;9.40;3.03;;;;;;;10.89;100.00;100275.75;5008348;28;20450;-72
2024/04/02 10:13:07;;;;;;;9.47;3.40;;;;;;;10.93;100.00;100287.69;5007912;28;20213;-72
2024/04/02 10:15:36;;;;;;;10.70;3.03;;;;;;;10.51;100.00;100208.69;5008442;28;20185;-72
2024/04/02 10:18:02;;;;;;;10.97;3.20;;;;;;;11.37;100.00;100331.66;5007983;28;20208;-72
2024/04/02 10:20:30;;;;;;;9.30;3.10;;;;;;;11.30;100.00;100336.22;5008407;28;20769;-72
2024/04/02 10:22:57;;;;;;;7.40;2.80;;;;;;;11.30;100.00;100336.22;5008028;28;20464;-72
2024/04/02 10:25:24;;;;;;;10.53;2.67;;;;;;;10.98;100.00;100289.75;5008339;28;20476;-72
2024/04/02 10:27:52;;;;;;;9.97;2.83;;;;;;;11.09;100.00;100281.84;5008266;28;20439;-72
2024/04/02 10:30:22;;;;;;;11.03;3.60;;;;;;;11.45;100.00;100331.38;5010411;28;20466;-72
2024/04/02 10:32:49;;;;;;;15.37;6.50;;;;;;;11.56;100.00;100335.25;4993593;28;20459;-72
2024/04/02 10:35:41;;;;;;;11.63;5.70;;;;;;;11.22;100.00;100266.69;4995405;28;20450;-72
2024/04/02 10:38:07;;;;;;;12.83;6.07;;;;;;;11.68;100.00;100301.25;5008707;28;20582;-71
2024/04/02 10:40:35;;;;;;;10.17;3.10;;;;;;;11.97;100.00;100320.47;5012025;28;20493;-72
2024/04/02 10:43:00;;;;;;;14.50;3.27;;;;;;;11.29;100.00;100241.44;5012285;28;20490;-72
2024/04/02 10:45:27;;;;;;;9.70;2.90;;;;;;;11.20;100.00;100223.97;5012564;28;20443;-72
2024/04/02 10:47:53;;;;;;;10.87;3.10;;;;;;;11.66;100.00;100292.59;5012121;28;20646;-72
2024/04/02 10:50:21;;;;;;;12.77;3.97;;;;;;;11.39;100.00;100253.56;5012799;28;20439;-72
2024/04/02 10:52:46;;;;;;;11.00;3.00;;;;;;;11.06;100.00;100250.06;5011628;28;20251;-72
2024/04/02 10:55:12;;;;;;;13.23;3.83;;;;;;;10.88;100.00;100225.00;5012824;28;21553;-72
2024/04/02 10:57:39;;;;;;;13.67;3.77;;;;;;;11.41;100.00;100271.09;5011799;28;20572;-72
2024/04/02 11:00:08;;;;;;;10.43;3.23;;;;;;;11.34;100.00;100270.34;5012254;28;20200;-72
2024/04/02 11:02:35;;;;;;;12.00;4.30;;;;;;;10.79;100.00;100211.00;5010244;28;20468;-72
2024/04/02 11:05:00;;;;;;;12.80;4.50;;;;;;;11.34;100.00;100293.66;5010947;28;20471;-72
2024/04/02 11:07:27;;;;;;;9.73;4.33;;;;;;;11.31;100.00;100294.91;5011874;28;20557;-72
2024/04/02 11:09:53;;;;;;;17.23;5.10;;;;;;;11.17;100.00;100282.63;5012239;28;20626;-72
2024/04/02 11:12:20;;;;;;;12.80;5.93;;;;;;;10.77;100.00;100234.56;4993269;28;20585;-72
2024/04/02 11:14:48;;;;;;;19.30;7.80;;;;;;;10.98;100.00;100250.31;5018752;28;20436;-72
2024/04/02 11:17:14;;;;;;;19.33;8.17;;;;;;;11.11;100.00;100249.44;4999011;28;20424;-72